Terminal Aerodrome Forecast
Issued by NWS

Home | Current Version | Previous Version | Text Only | Print | Product List | Glossary On
Versions: 1 2 3 4 5 6 7 8 9 10 11 12 13 14 15
000
FTUS43 KMQT 022332
TAFCMX
TAF
KCMX 022332Z 0300/0324 28007KT P6SM FEW035
     FM030100 11004KT P6SM SCT250
     FM030700 18005KT P6SM OVC120
     FM031200 18007KT 3SM -SN OVC040
     FM031400 18009KT 2SM -SN OVC015
     FM032000 27013G20KT 3SM -SHSN OVC015=

USA.gov is the U.S. government's official web portal to all federal, state and local government web resources and services.